sensor_id;sensor_type;location;lat;lon;timestamp;P1;durP1;ratioP1;P2;durP2;ratioP2
82554;SDS011;72219;48.186;11.554;2023-08-30T00:00:06;0.40;;;0.40;;
82554;SDS011;72219;48.186;11.554;2023-08-30T00:02:33;0.75;;;0.50;;
82554;SDS011;72219;48.186;11.554;2023-08-30T00:04:59;0.50;;;0.50;;
82554;SDS011;72219;48.186;11.554;2023-08-30T00:07:26;0.52;;;0.50;;
82554;SDS011;72219;48.186;11.554;2023-08-30T00:09:51;0.43;;;0.43;;
82554;SDS011;72219;48.186;11.554;2023-08-30T00:12:17;0.40;;;0.40;;
82554;SDS011;72219;48.186;11.554;2023-08-30T00:14:42;0.55;;;0.50;;
82554;SDS011;72219;48.186;11.554;2023-08-30T00:17:07;0.45;;;0.45;;
82554;SDS011;72219;48.186;11.554;2023-08-30T00:19:33;0.30;;;0.30;;
82554;SDS011;72219;48.186;11.554;2023-08-30T00:21:59;1.08;;;0.50;;
82554;SDS011;72219;48.186;11.554;2023-08-30T00:24:24;0.32;;;0.32;;
82554;SDS011;72219;48.186;11.554;2023-08-30T00:26:50;0.40;;;0.40;;
82554;SDS011;72219;48.186;11.554;2023-08-30T00:29:15;0.55;;;0.55;;
82554;SDS011;72219;48.186;11.554;2023-08-30T00:31:42;0.60;;;0.60;;
82554;SDS011;72219;48.186;11.554;2023-08-30T00:34:08;0.65;;;0.63;;
82554;SDS011;72219;48.186;11.554;2023-08-30T00:36:34;0.63;;;0.40;;
82554;SDS011;72219;48.186;11.554;2023-08-30T00:39:00;0.60;;;0.60;;
82554;SDS011;72219;48.186;11.554;2023-08-30T00:41:27;0.50;;;0.50;;
82554;SDS011;72219;48.186;11.554;2023-08-30T00:43:53;0.40;;;0.40;;
82554;SDS011;72219;48.186;11.554;2023-08-30T00:46:18;0.50;;;0.50;;
82554;SDS011;72219;48.186;11.554;2023-08-30T00:48:44;0.60;;;0.60;;
82554;SDS011;72219;48.186;11.554;2023-08-30T00:51:10;0.43;;;0.40;;
82554;SDS011;72219;48.186;11.554;2023-08-30T00:53:37;0.50;;;0.50;;
82554;SDS011;72219;48.186;11.554;2023-08-30T00:56:03;0.40;;;0.40;;
82554;SDS011;72219;48.186;11.554;2023-08-30T00:58:29;0.50;;;0.50;;
82554;SDS011;72219;48.186;11.554;2023-08-30T01:00:54;0.43;;;0.43;;
82554;SDS011;72219;48.186;11.554;2023-08-30T01:03:20;0.60;;;0.60;;
82554;SDS011;72219;48.186;11.554;2023-08-30T01:05:46;0.50;;;0.50;;
82554;SDS011;72219;48.186;11.554;2023-08-30T01:08:12;0.65;;;0.65;;
82554;SDS011;72219;48.186;11.554;2023-08-30T01:10:52;0.40;;;0.40;;
82554;SDS011;72219;48.186;11.554;2023-08-30T01:13:18;0.50;;;0.50;;
82554;SDS011;72219;48.186;11.554;2023-08-30T01:15:47;0.60;;;0.60;;
82554;SDS011;72219;48.186;11.554;2023-08-30T01:18:17;0.63;;;0.63;;
82554;SDS011;72219;48.186;11.554;2023-08-30T01:20:45;0.40;;;0.40;;
82554;SDS011;72219;48.186;11.554;2023-08-30T01:26:04;0.57;;;0.57;;
82554;SDS011;72219;48.186;11.554;2023-08-30T01:28:51;0.50;;;0.50;;
82554;SDS011;72219;48.186;11.554;2023-08-30T01:31:19;0.47;;;0.45;;
82554;SDS011;72219;48.186;11.554;2023-08-30T01:33:44;0.50;;;0.50;;
82554;SDS011;72219;48.186;11.554;2023-08-30T01:36:10;0.40;;;0.40;;
82554;SDS011;72219;48.186;11.554;2023-08-30T01:38:37;0.50;;;0.50;;
82554;SDS011;72219;48.186;11.554;2023-08-30T01:41:05;0.50;;;0.50;;
82554;SDS011;72219;48.186;11.554;2023-08-30T01:43:30;0.52;;;0.52;;
82554;SDS011;72219;48.186;11.554;2023-08-30T01:45:57;0.50;;;0.50;;
82554;SDS011;72219;48.186;11.554;2023-08-30T01:48:25;0.50;;;0.50;;
82554;SDS011;72219;48.186;11.554;2023-08-30T01:50:51;0.57;;;0.57;;
82554;SDS011;72219;48.186;11.554;2023-08-30T01:53:19;0.32;;;0.32;;
82554;SDS011;72219;48.186;11.554;2023-08-30T01:55:47;0.40;;;0.40;;
82554;SDS011;72219;48.186;11.554;2023-08-30T01:58:12;0.40;;;0.40;;
82554;SDS011;72219;48.186;11.554;2023-08-30T02:00:38;0.35;;;0.35;;
82554;SDS011;72219;48.186;11.554;2023-08-30T02:03:08;0.40;;;0.40;;
82554;SDS011;72219;48.186;11.554;2023-08-30T02:05:35;0.40;;;0.40;;
82554;SDS011;72219;48.186;11.554;2023-08-30T02:08:17;0.50;;;0.50;;
82554;SDS011;72219;48.186;11.554;2023-08-30T02:10:51;0.38;;;0.38;;
82554;SDS011;72219;48.186;11.554;2023-08-30T02:13:21;0.60;;;0.60;;
82554;SDS011;72219;48.186;11.554;2023-08-30T02:15:53;0.35;;;0.30;;
82554;SDS011;72219;48.186;11.554;2023-08-30T02:18:22;0.68;;;0.65;;
82554;SDS011;72219;48.186;11.554;2023-08-30T02:20:48;0.40;;;0.40;;
82554;SDS011;72219;48.186;11.554;2023-08-30T02:23:16;0.50;;;0.50;;
82554;SDS011;72219;48.186;11.554;2023-08-30T02:25:44;0.40;;;0.40;;
82554;SDS011;72219;48.186;11.554;2023-08-30T02:28:10;0.45;;;0.45;;
82554;SDS011;72219;48.186;11.554;2023-08-30T02:30:35;0.35;;;0.35;;
82554;SDS011;72219;48.186;11.554;2023-08-30T02:33:00;0.50;;;0.50;;
82554;SDS011;72219;48.186;11.554;2023-08-30T02:35:26;0.40;;;0.40;;
82554;SDS011;72219;48.186;11.554;2023-08-30T02:37:51;0.40;;;0.40;;
82554;SDS011;72219;48.186;11.554;2023-08-30T02:40:16;0.40;;;0.40;;
82554;SDS011;72219;48.186;11.554;2023-08-30T02:42:42;0.60;;;0.60;;
82554;SDS011;72219;48.186;11.554;2023-08-30T02:45:07;0.57;;;0.57;;
82554;SDS011;72219;48.186;11.554;2023-08-30T02:47:33;0.43;;;0.40;;
82554;SDS011;72219;48.186;11.554;2023-08-30T02:50:00;0.40;;;0.40;;
82554;SDS011;72219;48.186;11.554;2023-08-30T02:52:27;0.73;;;0.73;;
82554;SDS011;72219;48.186;11.554;2023-08-30T02:54:53;0.60;;;0.60;;
82554;SDS011;72219;48.186;11.554;2023-08-30T02:57:21;0.52;;;0.52;;
82554;SDS011;72219;48.186;11.554;2023-08-30T02:59:46;0.38;;;0.38;;
82554;SDS011;72219;48.186;11.554;2023-08-30T03:02:11;0.40;;;0.40;;
82554;SDS011;72219;48.186;11.554;2023-08-30T03:04:38;0.65;;;0.65;;
82554;SDS011;72219;48.186;11.554;2023-08-30T03:07:04;0.47;;;0.47;;
82554;SDS011;72219;48.186;11.554;2023-08-30T03:09:29;0.47;;;0.47;;
82554;SDS011;72219;48.186;11.554;2023-08-30T03:11:54;0.70;;;0.70;;
82554;SDS011;72219;48.186;11.554;2023-08-30T03:14:20;0.30;;;0.30;;
82554;SDS011;72219;48.186;11.554;2023-08-30T03:16:45;0.40;;;0.40;;
82554;SDS011;72219;48.186;11.554;2023-08-30T03:19:12;0.30;;;0.30;;
82554;SDS011;72219;48.186;11.554;2023-08-30T03:21:39;0.43;;;0.43;;
82554;SDS011;72219;48.186;11.554;2023-08-30T03:24:04;0.43;;;0.43;;
82554;SDS011;72219;48.186;11.554;2023-08-30T03:26:30;0.43;;;0.43;;
82554;SDS011;72219;48.186;11.554;2023-08-30T03:28:55;0.47;;;0.47;;
82554;SDS011;72219;48.186;11.554;2023-08-30T03:31:21;0.38;;;0.38;;
82554;SDS011;72219;48.186;11.554;2023-08-30T03:33:49;0.43;;;0.43;;
82554;SDS011;72219;48.186;11.554;2023-08-30T03:36:15;0.60;;;0.60;;
82554;SDS011;72219;48.186;11.554;2023-08-30T03:38:42;0.50;;;0.50;;
82554;SDS011;72219;48.186;11.554;2023-08-30T03:41:08;0.30;;;0.30;;
82554;SDS011;72219;48.186;11.554;2023-08-30T03:43:35;0.30;;;0.30;;
82554;SDS011;72219;48.186;11.554;2023-08-30T03:46:00;0.30;;;0.30;;
82554;SDS011;72219;48.186;11.554;2023-08-30T03:48:29;0.40;;;0.40;;
82554;SDS011;72219;48.186;11.554;2023-08-30T03:50:55;0.50;;;0.50;;
82554;SDS011;72219;48.186;11.554;2023-08-30T03:53:21;0.50;;;0.50;;
82554;SDS011;72219;48.186;11.554;2023-08-30T03:55:47;0.50;;;0.50;;
82554;SDS011;72219;48.186;11.554;2023-08-30T03:58:12;0.57;;;0.45;;
82554;SDS011;72219;48.186;11.554;2023-08-30T04:00:38;0.47;;;0.47;;
82554;SDS011;72219;48.186;11.554;2023-08-30T04:03:07;1.00;;;0.43;;
82554;SDS011;72219;48.186;11.554;2023-08-30T04:05:36;0.43;;;0.43;;
82554;SDS011;72219;48.186;11.554;2023-08-30T04:08:05;0.50;;;0.50;;
82554;SDS011;72219;48.186;11.554;2023-08-30T04:10:35;0.50;;;0.50;;
82554;SDS011;72219;48.186;11.554;2023-08-30T04:13:02;0.65;;;0.65;;
82554;SDS011;72219;48.186;11.554;2023-08-30T04:15:32;0.50;;;0.50;;
82554;SDS011;72219;48.186;11.554;2023-08-30T04:17:59;0.40;;;0.40;;
82554;SDS011;72219;48.186;11.554;2023-08-30T04:20:24;0.40;;;0.40;;
82554;SDS011;72219;48.186;11.554;2023-08-30T04:22:49;0.50;;;0.50;;
82554;SDS011;72219;48.186;11.554;2023-08-30T04:25:16;0.40;;;0.40;;
82554;SDS011;72219;48.186;11.554;2023-08-30T04:27:42;0.40;;;0.40;;
82554;SDS011;72219;48.186;11.554;2023-08-30T04:30:07;0.30;;;0.30;;
82554;SDS011;72219;48.186;11.554;2023-08-30T04:32:34;0.40;;;0.40;;
82554;SDS011;72219;48.186;11.554;2023-08-30T04:35:01;0.30;;;0.30;;
82554;SDS011;72219;48.186;11.554;2023-08-30T04:37:29;0.40;;;0.40;;
82554;SDS011;72219;48.186;11.554;2023-08-30T04:39:56;0.60;;;0.60;;
82554;SDS011;72219;48.186;11.554;2023-08-30T04:42:22;0.50;;;0.50;;
82554;SDS011;72219;48.186;11.554;2023-08-30T04:44:47;0.68;;;0.50;;
82554;SDS011;72219;48.186;11.554;2023-08-30T04:47:12;0.55;;;0.55;;
82554;SDS011;72219;48.186;11.554;2023-08-30T04:49:38;0.40;;;0.40;;
82554;SDS011;72219;48.186;11.554;2023-08-30T04:52:06;0.50;;;0.50;;
82554;SDS011;72219;48.186;11.554;2023-08-30T04:54:31;0.55;;;0.55;;
82554;SDS011;72219;48.186;11.554;2023-08-30T04:56:56;0.60;;;0.60;;
82554;SDS011;72219;48.186;11.554;2023-08-30T04:59:22;0.38;;;0.38;;
82554;SDS011;72219;48.186;11.554;2023-08-30T05:01:47;0.50;;;0.50;;
82554;SDS011;72219;48.186;11.554;2023-08-30T05:04:13;0.40;;;0.40;;
82554;SDS011;72219;48.186;11.554;2023-08-30T05:06:38;0.55;;;0.55;;
82554;SDS011;72219;48.186;11.554;2023-08-30T05:09:03;0.52;;;0.52;;
82554;SDS011;72219;48.186;11.554;2023-08-30T05:11:29;0.57;;;0.57;;
82554;SDS011;72219;48.186;11.554;2023-08-30T05:13:54;0.50;;;0.50;;
82554;SDS011;72219;48.186;11.554;2023-08-30T05:16:20;0.43;;;0.40;;
82554;SDS011;72219;48.186;11.554;2023-08-30T05:18:45;0.40;;;0.40;;
82554;SDS011;72219;48.186;11.554;2023-08-30T05:21:13;0.50;;;0.50;;
82554;SDS011;72219;48.186;11.554;2023-08-30T05:23:38;0.50;;;0.50;;
82554;SDS011;72219;48.186;11.554;2023-08-30T05:26:06;0.60;;;0.60;;
82554;SDS011;72219;48.186;11.554;2023-08-30T05:28:32;1.63;;;0.50;;
82554;SDS011;72219;48.186;11.554;2023-08-30T05:30:58;0.60;;;0.60;;
82554;SDS011;72219;48.186;11.554;2023-08-30T05:33:26;0.40;;;0.40;;
82554;SDS011;72219;48.186;11.554;2023-08-30T05:35:51;0.50;;;0.50;;
82554;SDS011;72219;48.186;11.554;2023-08-30T05:38:16;0.50;;;0.40;;
82554;SDS011;72219;48.186;11.554;2023-08-30T05:40:42;0.50;;;0.50;;
82554;SDS011;72219;48.186;11.554;2023-08-30T05:43:09;0.40;;;0.40;;
82554;SDS011;72219;48.186;11.554;2023-08-30T05:45:35;0.50;;;0.50;;
82554;SDS011;72219;48.186;11.554;2023-08-30T05:48:01;0.40;;;0.40;;
82554;SDS011;72219;48.186;11.554;2023-08-30T05:50:26;0.50;;;0.50;;
82554;SDS011;72219;48.186;11.554;2023-08-30T05:52:51;0.40;;;0.40;;
82554;SDS011;72219;48.186;11.554;2023-08-30T05:55:17;0.60;;;0.60;;
82554;SDS011;72219;48.186;11.554;2023-08-30T05:57:42;0.35;;;0.35;;
82554;SDS011;72219;48.186;11.554;2023-08-30T06:00:07;0.38;;;0.38;;
82554;SDS011;72219;48.186;11.554;2023-08-30T06:02:33;0.50;;;0.50;;
82554;SDS011;72219;48.186;11.554;2023-08-30T06:04:59;0.47;;;0.47;;
82554;SDS011;72219;48.186;11.554;2023-08-30T06:07:24;0.40;;;0.40;;
82554;SDS011;72219;48.186;11.554;2023-08-30T06:09:50;0.47;;;0.47;;
82554;SDS011;72219;48.186;11.554;2023-08-30T06:12:18;0.30;;;0.30;;
82554;SDS011;72219;48.186;11.554;2023-08-30T06:14:44;0.57;;;0.57;;
82554;SDS011;72219;48.186;11.554;2023-08-30T06:17:15;0.40;;;0.40;;
82554;SDS011;72219;48.186;11.554;2023-08-30T06:19:41;0.32;;;0.32;;
82554;SDS011;72219;48.186;11.554;2023-08-30T06:22:06;0.32;;;0.32;;
82554;SDS011;72219;48.186;11.554;2023-08-30T06:24:32;0.40;;;0.40;;
82554;SDS011;72219;48.186;11.554;2023-08-30T06:26:57;0.40;;;0.40;;
82554;SDS011;72219;48.186;11.554;2023-08-30T06:29:28;0.50;;;0.50;;
82554;SDS011;72219;48.186;11.554;2023-08-30T06:31:54;0.40;;;0.40;;
82554;SDS011;72219;48.186;11.554;2023-08-30T06:34:19;0.40;;;0.40;;
82554;SDS011;72219;48.186;11.554;2023-08-30T06:36:45;0.43;;;0.43;;
82554;SDS011;72219;48.186;11.554;2023-08-30T06:39:13;0.50;;;0.50;;
82554;SDS011;72219;48.186;11.554;2023-08-30T06:41:39;0.30;;;0.30;;
82554;SDS011;72219;48.186;11.554;2023-08-30T06:44:05;0.50;;;0.50;;
82554;SDS011;72219;48.186;11.554;2023-08-30T06:46:35;0.60;;;0.60;;
82554;SDS011;72219;48.186;11.554;2023-08-30T06:49:02;0.63;;;0.60;;
82554;SDS011;72219;48.186;11.554;2023-08-30T06:51:28;0.47;;;0.47;;
82554;SDS011;72219;48.186;11.554;2023-08-30T06:53:53;0.35;;;0.35;;
82554;SDS011;72219;48.186;11.554;2023-08-30T06:56:20;0.50;;;0.50;;
82554;SDS011;72219;48.186;11.554;2023-08-30T06:58:45;0.40;;;0.40;;
82554;SDS011;72219;48.186;11.554;2023-08-30T07:01:11;0.40;;;0.40;;
82554;SDS011;72219;48.186;11.554;2023-08-30T07:03:39;0.40;;;0.40;;
82554;SDS011;72219;48.186;11.554;2023-08-30T07:06:05;0.40;;;0.40;;
82554;SDS011;72219;48.186;11.554;2023-08-30T07:08:30;0.50;;;0.50;;
82554;SDS011;72219;48.186;11.554;2023-08-30T07:10:55;0.45;;;0.45;;
82554;SDS011;72219;48.186;11.554;2023-08-30T07:13:21;3.08;;;1.02;;
82554;SDS011;72219;48.186;11.554;2023-08-30T07:15:46;0.60;;;0.60;;
82554;SDS011;72219;48.186;11.554;2023-08-30T07:18:13;0.73;;;0.57;;
82554;SDS011;72219;48.186;11.554;2023-08-30T07:20:39;1.90;;;1.13;;
82554;SDS011;72219;48.186;11.554;2023-08-30T07:23:04;0.57;;;0.47;;
82554;SDS011;72219;48.186;11.554;2023-08-30T07:25:30;0.47;;;0.47;;
82554;SDS011;72219;48.186;11.554;2023-08-30T07:27:57;0.65;;;0.65;;
82554;SDS011;72219;48.186;11.554;2023-08-30T07:30:23;1.33;;;0.63;;
82554;SDS011;72219;48.186;11.554;2023-08-30T07:32:48;0.50;;;0.50;;
82554;SDS011;72219;48.186;11.554;2023-08-30T07:35:13;0.65;;;0.60;;
82554;SDS011;72219;48.186;11.554;2023-08-30T07:37:40;0.50;;;0.50;;
82554;SDS011;72219;48.186;11.554;2023-08-30T07:40:06;0.40;;;0.40;;
82554;SDS011;72219;48.186;11.554;2023-08-30T07:42:32;0.50;;;0.50;;
82554;SDS011;72219;48.186;11.554;2023-08-30T07:44:57;0.43;;;0.40;;
82554;SDS011;72219;48.186;11.554;2023-08-30T07:47:24;0.50;;;0.50;;
82554;SDS011;72219;48.186;11.554;2023-08-30T07:49:49;0.45;;;0.32;;
82554;SDS011;72219;48.186;11.554;2023-08-30T07:52:15;0.57;;;0.57;;
82554;SDS011;72219;48.186;11.554;2023-08-30T07:54:40;1.00;;;0.40;;
82554;SDS011;72219;48.186;11.554;2023-08-30T07:57:07;2.38;;;0.50;;
82554;SDS011;72219;48.186;11.554;2023-08-30T07:59:33;0.57;;;0.57;;
82554;SDS011;72219;48.186;11.554;2023-08-30T08:01:59;0.52;;;0.50;;
82554;SDS011;72219;48.186;11.554;2023-08-30T08:04:25;0.43;;;0.43;;
82554;SDS011;72219;48.186;11.554;2023-08-30T08:06:51;0.50;;;0.50;;
82554;SDS011;72219;48.186;11.554;2023-08-30T08:09:17;0.47;;;0.47;;
82554;SDS011;72219;48.186;11.554;2023-08-30T08:11:42;0.38;;;0.38;;
82554;SDS011;72219;48.186;11.554;2023-08-30T08:14:11;0.30;;;0.30;;
82554;SDS011;72219;48.186;11.554;2023-08-30T08:16:37;0.32;;;0.32;;
82554;SDS011;72219;48.186;11.554;2023-08-30T08:19:04;0.55;;;0.50;;
82554;SDS011;72219;48.186;11.554;2023-08-30T08:21:29;0.30;;;0.30;;
82554;SDS011;72219;48.186;11.554;2023-08-30T08:23:54;0.40;;;0.40;;
82554;SDS011;72219;48.186;11.554;2023-08-30T08:26:20;0.50;;;0.50;;
82554;SDS011;72219;48.186;11.554;2023-08-30T08:28:47;0.38;;;0.38;;
82554;SDS011;72219;48.186;11.554;2023-08-30T08:31:13;0.70;;;0.40;;
82554;SDS011;72219;48.186;11.554;2023-08-30T08:33:39;0.43;;;0.30;;
82554;SDS011;72219;48.186;11.554;2023-08-30T08:36:05;0.47;;;0.47;;
82554;SDS011;72219;48.186;11.554;2023-08-30T08:38:30;0.50;;;0.50;;
82554;SDS011;72219;48.186;11.554;2023-08-30T08:41:01;0.47;;;0.47;;
82554;SDS011;72219;48.186;11.554;2023-08-30T08:43:28;0.32;;;0.32;;
82554;SDS011;72219;48.186;11.554;2023-08-30T08:45:59;0.30;;;0.30;;
82554;SDS011;72219;48.186;11.554;2023-08-30T08:48:25;0.40;;;0.40;;
82554;SDS011;72219;48.186;11.554;2023-08-30T08:50:54;0.50;;;0.50;;
82554;SDS011;72219;48.186;11.554;2023-08-30T08:53:21;0.60;;;0.60;;
82554;SDS011;72219;48.186;11.554;2023-08-30T08:55:47;0.40;;;0.40;;
82554;SDS011;72219;48.186;11.554;2023-08-30T08:58:16;0.40;;;0.40;;
82554;SDS011;72219;48.186;11.554;2023-08-30T09:00:42;0.40;;;0.30;;
82554;SDS011;72219;48.186;11.554;2023-08-30T09:03:08;0.30;;;0.30;;
82554;SDS011;72219;48.186;11.554;2023-08-30T09:05:37;0.40;;;0.40;;
82554;SDS011;72219;48.186;11.554;2023-08-30T09:08:02;0.57;;;0.57;;
82554;SDS011;72219;48.186;11.554;2023-08-30T09:10:31;0.30;;;0.30;;
82554;SDS011;72219;48.186;11.554;2023-08-30T09:12:59;0.32;;;0.32;;
82554;SDS011;72219;48.186;11.554;2023-08-30T09:15:34;0.55;;;0.30;;
82554;SDS011;72219;48.186;11.554;2023-08-30T09:18:02;0.40;;;0.40;;
82554;SDS011;72219;48.186;11.554;2023-08-30T09:20:27;1.48;;;0.47;;
82554;SDS011;72219;48.186;11.554;2023-08-30T09:22:53;0.50;;;0.50;;
82554;SDS011;72219;48.186;11.554;2023-08-30T09:25:25;0.40;;;0.40;;
82554;SDS011;72219;48.186;11.554;2023-08-30T09:27:58;0.50;;;0.50;;
82554;SDS011;72219;48.186;11.554;2023-08-30T09:30:26;0.30;;;0.30;;
82554;SDS011;72219;48.186;11.554;2023-08-30T09:32:51;0.40;;;0.40;;
82554;SDS011;72219;48.186;11.554;2023-08-30T09:35:17;0.45;;;0.35;;
82554;SDS011;72219;48.186;11.554;2023-08-30T09:37:45;0.35;;;0.35;;
82554;SDS011;72219;48.186;11.554;2023-08-30T09:40:11;0.43;;;0.43;;
82554;SDS011;72219;48.186;11.554;2023-08-30T09:42:42;0.50;;;0.50;;
82554;SDS011;72219;48.186;11.554;2023-08-30T09:45:17;0.40;;;0.32;;
82554;SDS011;72219;48.186;11.554;2023-08-30T09:47:48;0.25;;;0.25;;
82554;SDS011;72219;48.186;11.554;2023-08-30T09:50:16;0.30;;;0.30;;
82554;SDS011;72219;48.186;11.554;2023-08-30T09:52:43;0.38;;;0.38;;
82554;SDS011;72219;48.186;11.554;2023-08-30T09:55:11;0.95;;;0.40;;
82554;SDS011;72219;48.186;11.554;2023-08-30T09:57:36;0.32;;;0.32;;
82554;SDS011;72219;48.186;11.554;2023-08-30T10:00:02;0.40;;;0.40;;
82554;SDS011;72219;48.186;11.554;2023-08-30T10:02:29;0.40;;;0.40;;
82554;SDS011;72219;48.186;11.554;2023-08-30T10:04:56;0.40;;;0.40;;
82554;SDS011;72219;48.186;11.554;2023-08-30T10:07:22;0.75;;;0.60;;
82554;SDS011;72219;48.186;11.554;2023-08-30T10:09:49;0.30;;;0.30;;
82554;SDS011;72219;48.186;11.554;2023-08-30T10:12:19;0.50;;;0.50;;
82554;SDS011;72219;48.186;11.554;2023-08-30T10:14:47;0.32;;;0.32;;
82554;SDS011;72219;48.186;11.554;2023-08-30T10:17:15;0.30;;;0.30;;
82554;SDS011;72219;48.186;11.554;2023-08-30T10:19:43;0.30;;;0.30;;
82554;SDS011;72219;48.186;11.554;2023-08-30T10:22:10;0.22;;;0.22;;
82554;SDS011;72219;48.186;11.554;2023-08-30T10:24:47;0.40;;;0.40;;
82554;SDS011;72219;48.186;11.554;2023-08-30T10:27:13;0.35;;;0.35;;
82554;SDS011;72219;48.186;11.554;2023-08-30T10:29:41;0.40;;;0.40;;
82554;SDS011;72219;48.186;11.554;2023-08-30T10:32:10;0.40;;;0.40;;
82554;SDS011;72219;48.186;11.554;2023-08-30T10:34:37;0.40;;;0.40;;
82554;SDS011;72219;48.186;11.554;2023-08-30T10:37:06;0.38;;;0.38;;
82554;SDS011;72219;48.186;11.554;2023-08-30T10:39:33;0.43;;;0.43;;
82554;SDS011;72219;48.186;11.554;2023-08-30T10:42:00;0.43;;;0.43;;
82554;SDS011;72219;48.186;11.554;2023-08-30T10:44:25;0.20;;;0.20;;
82554;SDS011;72219;48.186;11.554;2023-08-30T10:46:52;0.50;;;0.50;;
82554;SDS011;72219;48.186;11.554;2023-08-30T10:49:22;0.50;;;0.50;;
82554;SDS011;72219;48.186;11.554;2023-08-30T10:51:54;0.47;;;0.47;;
82554;SDS011;72219;48.186;11.554;2023-08-30T10:54:26;0.40;;;0.40;;
82554;SDS011;72219;48.186;11.554;2023-08-30T10:57:02;0.35;;;0.35;;
82554;SDS011;72219;48.186;11.554;2023-08-30T10:59:28;0.50;;;0.47;;
82554;SDS011;72219;48.186;11.554;2023-08-30T11:01:54;0.40;;;0.40;;
82554;SDS011;72219;48.186;11.554;2023-08-30T11:04:22;0.50;;;0.50;;
82554;SDS011;72219;48.186;11.554;2023-08-30T11:06:50;0.30;;;0.30;;
82554;SDS011;72219;48.186;11.554;2023-08-30T11:09:23;0.40;;;0.40;;
82554;SDS011;72219;48.186;11.554;2023-08-30T11:11:49;0.40;;;0.40;;
82554;SDS011;72219;48.186;11.554;2023-08-30T11:14:16;0.50;;;0.50;;
82554;SDS011;72219;48.186;11.554;2023-08-30T11:16:43;0.50;;;0.50;;
82554;SDS011;72219;48.186;11.554;2023-08-30T11:19:10;0.45;;;0.45;;
82554;SDS011;72219;48.186;11.554;2023-08-30T11:21:37;0.47;;;0.47;;
82554;SDS011;72219;48.186;11.554;2023-08-30T11:24:04;0.50;;;0.43;;
82554;SDS011;72219;48.186;11.554;2023-08-30T11:26:30;0.30;;;0.30;;
82554;SDS011;72219;48.186;11.554;2023-08-30T11:28:56;0.30;;;0.30;;
82554;SDS011;72219;48.186;11.554;2023-08-30T11:31:22;0.40;;;0.40;;
82554;SDS011;72219;48.186;11.554;2023-08-30T11:33:53;0.30;;;0.30;;
82554;SDS011;72219;48.186;11.554;2023-08-30T11:36:20;0.30;;;0.30;;
82554;SDS011;72219;48.186;11.554;2023-08-30T11:38:47;0.43;;;0.43;;
82554;SDS011;72219;48.186;11.554;2023-08-30T11:41:17;0.43;;;0.43;;
82554;SDS011;72219;48.186;11.554;2023-08-30T11:43:45;0.30;;;0.30;;
82554;SDS011;72219;48.186;11.554;2023-08-30T11:46:12;0.40;;;0.40;;
82554;SDS011;72219;48.186;11.554;2023-08-30T11:48:38;0.40;;;0.40;;
82554;SDS011;72219;48.186;11.554;2023-08-30T11:51:07;0.38;;;0.38;;
82554;SDS011;72219;48.186;11.554;2023-08-30T11:53:36;0.30;;;0.30;;
82554;SDS011;72219;48.186;11.554;2023-08-30T11:56:03;0.52;;;0.43;;
82554;SDS011;72219;48.186;11.554;2023-08-30T11:58:36;0.40;;;0.40;;
82554;SDS011;72219;48.186;11.554;2023-08-30T12:01:03;0.60;;;0.60;;
82554;SDS011;72219;48.186;11.554;2023-08-30T12:03:30;0.40;;;0.40;;
82554;SDS011;72219;48.186;11.554;2023-08-30T12:05:56;0.40;;;0.40;;
82554;SDS011;72219;48.186;11.554;2023-08-30T12:08:23;0.47;;;0.47;;
82554;SDS011;72219;48.186;11.554;2023-08-30T12:10:50;0.40;;;0.40;;
82554;SDS011;72219;48.186;11.554;2023-08-30T12:13:20;0.45;;;0.43;;
82554;SDS011;72219;48.186;11.554;2023-08-30T12:15:49;0.43;;;0.43;;
82554;SDS011;72219;48.186;11.554;2023-08-30T12:21:17;0.40;;;0.40;;
82554;SDS011;72219;48.186;11.554;2023-08-30T12:23:48;0.40;;;0.40;;
82554;SDS011;72219;48.186;11.554;2023-08-30T12:26:13;0.38;;;0.38;;
82554;SDS011;72219;48.186;11.554;2023-08-30T12:28:39;0.45;;;0.45;;
82554;SDS011;72219;48.186;11.554;2023-08-30T12:31:06;0.30;;;0.30;;
82554;SDS011;72219;48.186;11.554;2023-08-30T12:33:33;0.40;;;0.40;;
82554;SDS011;72219;48.186;11.554;2023-08-30T12:35:59;0.50;;;0.50;;
82554;SDS011;72219;48.186;11.554;2023-08-30T12:38:25;0.43;;;0.43;;
82554;SDS011;72219;48.186;11.554;2023-08-30T12:40:51;0.40;;;0.40;;
82554;SDS011;72219;48.186;11.554;2023-08-30T12:43:18;0.40;;;0.40;;
82554;SDS011;72219;48.186;11.554;2023-08-30T12:45:48;0.40;;;0.40;;
82554;SDS011;72219;48.186;11.554;2023-08-30T12:48:15;0.50;;;0.50;;
82554;SDS011;72219;48.186;11.554;2023-08-30T12:50:42;0.32;;;0.32;;
82554;SDS011;72219;48.186;11.554;2023-08-30T12:53:09;0.50;;;0.50;;
82554;SDS011;72219;48.186;11.554;2023-08-30T12:55:34;1.27;;;0.30;;
82554;SDS011;72219;48.186;11.554;2023-08-30T12:58:00;0.47;;;0.47;;
82554;SDS011;72219;48.186;11.554;2023-08-30T13:00:28;2.22;;;0.50;;
82554;SDS011;72219;48.186;11.554;2023-08-30T13:02:54;1.05;;;0.57;;
82554;SDS011;72219;48.186;11.554;2023-08-30T13:05:21;0.50;;;0.50;;
82554;SDS011;72219;48.186;11.554;2023-08-30T13:07:46;0.50;;;0.50;;
82554;SDS011;72219;48.186;11.554;2023-08-30T13:10:13;4.03;;;0.43;;
82554;SDS011;72219;48.186;11.554;2023-08-30T13:12:39;1.00;;;0.60;;
82554;SDS011;72219;48.186;11.554;2023-08-30T13:15:05;1.55;;;0.85;;
82554;SDS011;72219;48.186;11.554;2023-08-30T13:17:33;0.50;;;0.50;;
82554;SDS011;72219;48.186;11.554;2023-08-30T13:19:58;3.13;;;0.63;;
82554;SDS011;72219;48.186;11.554;2023-08-30T13:22:24;0.80;;;0.70;;
82554;SDS011;72219;48.186;11.554;2023-08-30T13:24:51;2.83;;;0.73;;
82554;SDS011;72219;48.186;11.554;2023-08-30T13:27:17;0.95;;;0.82;;
82554;SDS011;72219;48.186;11.554;2023-08-30T13:29:43;0.98;;;0.70;;
82554;SDS011;72219;48.186;11.554;2023-08-30T13:32:08;1.98;;;0.70;;
82554;SDS011;72219;48.186;11.554;2023-08-30T13:34:34;0.63;;;0.63;;
82554;SDS011;72219;48.186;11.554;2023-08-30T13:36:59;2.25;;;0.80;;
82554;SDS011;72219;48.186;11.554;2023-08-30T13:39:24;2.15;;;0.90;;
82554;SDS011;72219;48.186;11.554;2023-08-30T13:41:50;5.50;;;1.25;;
82554;SDS011;72219;48.186;11.554;2023-08-30T13:44:16;10.55;;;1.40;;
82554;SDS011;72219;48.186;11.554;2023-08-30T13:46:43;2.58;;;1.10;;
82554;SDS011;72219;48.186;11.554;2023-08-30T13:49:09;8.20;;;1.25;;
82554;SDS011;72219;48.186;11.554;2023-08-30T13:51:35;2.22;;;1.45;;
82554;SDS011;72219;48.186;11.554;2023-08-30T13:54:01;3.67;;;1.33;;
82554;SDS011;72219;48.186;11.554;2023-08-30T13:56:26;2.72;;;1.40;;
82554;SDS011;72219;48.186;11.554;2023-08-30T13:58:52;4.47;;;1.15;;
82554;SDS011;72219;48.186;11.554;2023-08-30T14:01:17;4.88;;;1.27;;
82554;SDS011;72219;48.186;11.554;2023-08-30T14:03:43;3.40;;;0.93;;
82554;SDS011;72219;48.186;11.554;2023-08-30T14:06:10;2.13;;;1.05;;
82554;SDS011;72219;48.186;11.554;2023-08-30T14:08:35;4.00;;;1.58;;
82554;SDS011;72219;48.186;11.554;2023-08-30T14:11:01;5.97;;;1.58;;
82554;SDS011;72219;48.186;11.554;2023-08-30T14:13:26;6.38;;;1.58;;
82554;SDS011;72219;48.186;11.554;2023-08-30T14:15:57;3.50;;;1.33;;
82554;SDS011;72219;48.186;11.554;2023-08-30T14:18:22;4.28;;;1.30;;
82554;SDS011;72219;48.186;11.554;2023-08-30T14:20:48;2.90;;;1.08;;
82554;SDS011;72219;48.186;11.554;2023-08-30T14:23:13;3.15;;;1.50;;
82554;SDS011;72219;48.186;11.554;2023-08-30T14:25:39;3.13;;;1.42;;
82554;SDS011;72219;48.186;11.554;2023-08-30T14:28:04;4.30;;;1.52;;
82554;SDS011;72219;48.186;11.554;2023-08-30T14:30:30;5.75;;;1.65;;
82554;SDS011;72219;48.186;11.554;2023-08-30T14:32:58;4.38;;;1.65;;
82554;SDS011;72219;48.186;11.554;2023-08-30T14:35:24;5.28;;;1.75;;